Lewisville, Minnesota
Current Conditions -  °F | °C
As of 8:35 PM on Wednesday 22 Oct 2014 (Local Time) from KJYG Reporting Station
Broken Clouds Broken Clouds  
Wind Chill: 61°   Ceiling: 6000
Heat Index: 61°   Visibility: 10mi
Dew Point: 45°   Wind: 17mph
Humidity: 55%   Direction: 160°SSE
Pressure: 30.04"   Gusts: 22mph
Location:  43.92°N, 94.44°W
Report Text: KJYG 230135Z AUTO 16015G19KT 10SM BKN060 16/07 A3004 RMK AO2
Loading
Personal Weather Stations






























Interactive Weather Map
Tropical Storm Tracking
New forecast layout! Learn more

10-Day Weather Forecast

Advertisements
Track Severe Weather on mobile